Mannford, Oklahoma
Current Conditions -  °F | °C
As of 5:55 PM on Sunday 23 Nov 2014 (Local Time) from KOWP Reporting Station
Broken Clouds Broken Clouds  
Wind Chill: 53°   Ceiling: 8000
Heat Index: 53°   Visibility: 10mi
Dew Point: 45°   Wind: 14mph
Humidity: 72%   Direction: 330°NNW
Pressure: 29.41"   Gusts: 22mph
Location:  36.13°N, 96.35°W
Report Text: KOWP 232355Z AUTO 33012G19KT 290V350 10SM SCT032 SCT045 BKN080 12/07 A2941 RMK AO2 T01180070 10200 20118
Loading
Personal Weather Stations






























Interactive Weather Map New forecast layout! Learn more

10-Day Weather Forecast

Advertisements
Track Severe Weather on mobile